Time;durP1;ratioP1;P1;durP2;ratioP2;P2;SDS_P1;SDS_P2;PMS_P1;PMS_P2;Temp;Humidity;BMP_temperature;BMP_pressure;BME280_temperature;BME280_humidity;BME280_pressure;Samples;Min_cycle;Max_cycle;Signal;HPM_P1;HPM_P2
2023/06/07 00:00:32;;;;;;;11.90;10.52;;;;;;;-145.41;100.00;58600.66;5011518;28;20428;-79
2023/06/07 00:02:59;;;;;;;10.88;9.48;;;;;;;-145.41;100.00;58600.66;5012705;28;20046;-79
2023/06/07 00:05:25;;;;;;;12.82;11.52;;;;;;;-145.41;100.00;58600.66;5006731;28;20042;-79
2023/06/07 00:07:51;;;;;;;10.90;9.43;;;;;;;-145.41;100.00;58600.66;5012549;28;20404;-79
2023/06/07 00:10:16;;;;;;;12.10;10.77;;;;;;;-145.41;100.00;58600.66;5011055;28;20037;-79
2023/06/07 00:12:42;;;;;;;12.10;10.88;;;;;;;-145.41;100.00;58600.66;5008788;28;20030;-79
2023/06/07 00:15:08;;;;;;;11.05;9.77;;;;;;;-145.41;100.00;58600.66;5012319;28;20648;-78
2023/06/07 00:17:33;;;;;;;12.68;11.23;;;;;;;-145.41;100.00;58600.66;5007412;28;20061;-79
2023/06/07 00:20:00;;;;;;;14.35;12.88;;;;;;;-145.41;100.00;58600.66;5013300;28;20545;-78
2023/06/07 00:22:25;;;;;;;12.40;11.10;;;;;;;-145.41;100.00;58600.66;5012642;28;20084;-80
2023/06/07 00:24:51;;;;;;;11.07;9.60;;;;;;;-145.41;100.00;58600.66;5015613;28;20500;-79
2023/06/07 00:27:17;;;;;;;12.13;10.82;;;;;;;-145.41;100.00;58600.66;5016065;28;20114;-79
2023/06/07 00:29:42;;;;;;;12.05;10.82;;;;;;;-145.41;100.00;58600.66;5015282;28;20034;-79
2023/06/07 00:32:07;;;;;;;14.40;12.02;;;;;;;-145.41;100.00;58600.66;5011515;28;20026;-80
2023/06/07 00:34:33;;;;;;;12.07;10.77;;;;;;;-145.41;100.00;58600.66;5011798;28;20500;-79
2023/06/07 00:36:58;;;;;;;13.38;9.52;;;;;;;-145.41;100.00;58600.66;5015702;28;20038;-79
2023/06/07 00:39:24;;;;;;;13.85;12.45;;;;;;;-145.41;100.00;58600.66;5016353;28;20034;-80
2023/06/07 00:41:51;;;;;;;12.45;11.15;;;;;;;-145.41;100.00;58600.66;5014632;28;20038;-79
2023/06/07 00:44:17;;;;;;;12.40;11.18;;;;;;;-145.41;100.00;58600.66;5014760;28;20038;-79
2023/06/07 00:46:42;;;;;;;14.32;13.02;;;;;;;-145.41;100.00;58600.66;5014504;28;20030;-79
2023/06/07 00:49:10;;;;;;;11.60;10.40;;;;;;;-145.41;100.00;58600.66;5015041;28;20041;-78
2023/06/07 00:51:36;;;;;;;14.55;12.80;;;;;;;-145.41;100.00;58600.66;5015958;28;20029;-79
2023/06/07 00:54:04;;;;;;;15.25;12.23;;;;;;;-145.41;100.00;58600.66;5015033;28;20477;-79
2023/06/07 00:56:29;;;;;;;17.63;15.55;;;;;;;-145.41;100.00;58600.66;5009849;28;20045;-79
2023/06/07 00:58:56;;;;;;;14.40;12.88;;;;;;;-145.41;100.00;58600.66;5015557;28;20034;-79
2023/06/07 01:01:21;;;;;;;12.35;11.05;;;;;;;-145.41;100.00;58600.66;5010787;28;20550;-79
2023/06/07 01:03:47;;;;;;;15.00;13.40;;;;;;;-145.41;100.00;58600.66;5014760;28;20030;-79
2023/06/07 01:06:13;;;;;;;12.73;11.43;;;;;;;-145.41;100.00;58600.66;5014181;28;20156;-79
2023/06/07 01:08:40;;;;;;;11.50;10.30;;;;;;;-145.41;100.00;58600.66;5009617;28;20176;-79
2023/06/07 01:11:08;;;;;;;14.48;12.82;;;;;;;-145.41;100.00;58600.66;5012502;28;20033;-78
2023/06/07 01:13:34;;;;;;;14.00;12.68;;;;;;;-145.41;100.00;58600.66;5012612;28;20033;-79
2023/06/07 01:16:01;;;;;;;16.98;15.05;;;;;;;-145.41;100.00;58600.66;5014123;28;20413;-79
2023/06/07 01:18:27;;;;;;;16.83;14.77;;;;;;;-145.41;100.00;58600.66;5010808;28;20045;-79
2023/06/07 01:20:56;;;;;;;17.80;15.90;;;;;;;-145.41;100.00;58600.66;4994681;28;20034;-79
2023/06/07 01:23:29;;;;;;;14.98;13.50;;;;;;;-145.41;100.00;58600.66;5012593;28;20113;-79
2023/06/07 01:25:58;;;;;;;14.27;12.85;;;;;;;-145.41;100.00;58600.66;5026915;28;20493;-78
2023/06/07 01:28:26;;;;;;;13.77;12.38;;;;;;;-145.41;100.00;58600.66;5007742;28;20443;-78
2023/06/07 01:30:55;;;;;;;16.65;14.88;;;;;;;-145.41;100.00;58600.66;5014120;28;20544;-78
2023/06/07 01:33:22;;;;;;;12.63;11.43;;;;;;;-145.41;100.00;58600.66;5008320;28;20038;-78
2023/06/07 01:35:50;;;;;;;13.25;11.95;;;;;;;-145.41;100.00;58600.66;5012379;28;20045;-78
2023/06/07 01:38:19;;;;;;;12.00;10.73;;;;;;;-145.41;100.00;58600.66;4997829;28;20109;-79
2023/06/07 01:40:46;;;;;;;14.73;13.20;;;;;;;-145.41;100.00;58600.66;5012112;28;20032;-79
2023/06/07 01:43:14;;;;;;;14.68;13.13;;;;;;;-145.41;100.00;58600.66;5023061;28;20417;-78
2023/06/07 01:45:40;;;;;;;15.25;13.65;;;;;;;-145.41;100.00;58600.66;5009320;28;20029;-79
2023/06/07 01:48:06;;;;;;;14.52;13.00;;;;;;;-145.41;100.00;58600.66;5006547;28;20489;-78
2023/06/07 01:50:31;;;;;;;14.32;12.90;;;;;;;-145.41;100.00;58600.66;5013736;28;20072;-78
2023/06/07 01:52:57;;;;;;;14.80;13.30;;;;;;;-145.41;100.00;58600.66;5014398;28;20034;-79
2023/06/07 01:55:24;;;;;;;16.38;14.85;;;;;;;-145.41;100.00;58600.66;5004566;28;20025;-78
2023/06/07 01:58:05;;;;;;;17.73;15.80;;;;;;;-145.41;100.00;58600.66;5005609;28;20115;-78
2023/06/07 02:01:07;;;;;;;15.23;13.57;;;;;;;-145.41;100.00;58600.66;5010381;28;20042;-78
2023/06/07 02:03:45;;;;;;;13.63;12.32;;;;;;;-145.41;100.00;58600.66;4981968;28;20054;-79
2023/06/07 02:06:16;;;;;;;21.00;18.65;;;;;;;-145.41;100.00;58600.66;5010319;28;20120;-78
2023/06/07 02:08:53;;;;;;;17.30;15.50;;;;;;;-145.41;100.00;58600.66;5013541;28;20159;-79
2023/06/07 02:11:22;;;;;;;16.08;14.50;;;;;;;-145.41;100.00;58600.66;5013556;28;20083;-78
2023/06/07 02:13:49;;;;;;;21.40;19.20;;;;;;;-145.41;100.00;58600.66;5011714;28;20037;-78
2023/06/07 02:16:15;;;;;;;17.02;15.32;;;;;;;-145.41;100.00;58600.66;4999185;28;20034;-78
2023/06/07 02:18:41;;;;;;;15.25;13.75;;;;;;;-145.41;100.00;58600.66;5024272;28;20109;-79
2023/06/07 02:21:07;;;;;;;14.70;13.10;;;;;;;-145.41;100.00;58600.66;5013829;28;20052;-78
2023/06/07 02:23:33;;;;;;;14.50;13.13;;;;;;;-145.41;100.00;58600.66;5015649;28;20079;-79
2023/06/07 02:26:00;;;;;;;15.73;14.00;;;;;;;-145.41;100.00;58600.66;4997774;28;20085;-79
2023/06/07 02:28:26;;;;;;;13.90;12.50;;;;;;;-145.41;100.00;58600.66;5012772;28;20029;-79
2023/06/07 02:30:52;;;;;;;17.40;15.73;;;;;;;-145.41;100.00;58600.66;5013264;28;20100;-79
2023/06/07 02:33:21;;;;;;;15.68;14.07;;;;;;;-145.41;100.00;58600.66;5014916;28;20048;-80
2023/06/07 02:35:48;;;;;;;20.65;18.52;;;;;;;-145.41;100.00;58600.66;5014915;28;20109;-80
2023/06/07 02:38:14;;;;;;;24.40;21.90;;;;;;;-145.41;100.00;58600.66;5015542;28;20065;-80
2023/06/07 02:40:39;;;;;;;17.05;15.35;;;;;;;-145.41;100.00;58600.66;5012361;28;20121;-80
2023/06/07 02:43:04;;;;;;;16.88;14.43;;;;;;;-145.41;100.00;58600.66;5014601;28;20046;-80
2023/06/07 02:45:30;;;;;;;15.45;13.73;;;;;;;-145.41;100.00;58600.66;5014064;28;20412;-79
2023/06/07 02:47:56;;;;;;;19.95;17.52;;;;;;;-145.41;100.00;58600.66;5015472;28;20025;-80
2023/06/07 02:50:22;;;;;;;17.98;16.27;;;;;;;-145.41;100.00;58600.66;5013718;28;20037;-80
2023/06/07 02:52:50;;;;;;;16.13;14.45;;;;;;;-145.41;100.00;58600.66;5013853;28;20032;-80
2023/06/07 02:55:16;;;;;;;16.08;14.48;;;;;;;-145.41;100.00;58600.66;5014271;28;20500;-80
2023/06/07 02:57:42;;;;;;;17.35;15.70;;;;;;;-145.41;100.00;58600.66;5011627;28;20018;-79
2023/06/07 03:00:10;;;;;;;19.02;16.98;;;;;;;-145.41;100.00;58600.66;5012472;28;20584;-80
2023/06/07 03:02:45;;;;;;;20.85;18.80;;;;;;;-145.41;100.00;58600.66;4996970;28;20025;-79
2023/06/07 03:05:12;;;;;;;17.88;15.73;;;;;;;-145.41;100.00;58600.66;5012929;28;20030;-80
2023/06/07 03:07:40;;;;;;;19.30;17.23;;;;;;;-145.41;100.00;58600.66;5011949;28;20395;-79
2023/06/07 03:10:07;;;;;;;17.77;15.88;;;;;;;-145.41;100.00;58600.66;4997147;28;20044;-79
2023/06/07 03:12:33;;;;;;;19.42;17.38;;;;;;;-145.41;100.00;58600.66;5012870;28;20029;-79
2023/06/07 03:14:58;;;;;;;17.50;15.80;;;;;;;-145.41;100.00;58600.66;5013593;28;20030;-79
2023/06/07 03:17:24;;;;;;;17.67;15.98;;;;;;;-145.41;100.00;58600.66;5013370;28;20157;-80
2023/06/07 03:19:54;;;;;;;18.30;16.40;;;;;;;-145.41;100.00;58600.66;5016050;28;20034;-80
2023/06/07 03:22:21;;;;;;;18.05;16.25;;;;;;;-145.41;100.00;58600.66;5013641;28;20052;-80
2023/06/07 03:24:48;;;;;;;18.77;16.98;;;;;;;-145.41;100.00;58600.66;5012916;28;20030;-80
2023/06/07 03:27:15;;;;;;;17.20;15.40;;;;;;;-145.41;100.00;58600.66;5014843;28;20033;-80
2023/06/07 03:29:41;;;;;;;17.88;15.82;;;;;;;-145.41;100.00;58600.66;4995221;28;20033;-79
2023/06/07 03:32:07;;;;;;;20.60;17.00;;;;;;;-145.41;100.00;58600.66;5012955;28;20116;-80
2023/06/07 03:34:36;;;;;;;17.75;15.95;;;;;;;-145.41;100.00;58600.66;5012682;28;20488;-79
2023/06/07 03:37:03;;;;;;;16.15;14.45;;;;;;;-145.41;100.00;58600.66;5009513;28;20030;-79
2023/06/07 03:39:31;;;;;;;20.63;18.63;;;;;;;-145.41;100.00;58600.66;5012020;28;20073;-79
2023/06/07 03:41:57;;;;;;;20.70;18.60;;;;;;;-145.41;100.00;58600.66;5012538;28;20038;-80
2023/06/07 03:44:25;;;;;;;17.33;15.68;;;;;;;-145.41;100.00;58600.66;5012871;28;20049;-80
2023/06/07 03:46:50;;;;;;;16.88;15.07;;;;;;;-145.41;100.00;58600.66;5013593;28;20472;-80
2023/06/07 03:49:16;;;;;;;20.10;18.30;;;;;;;-145.41;100.00;58600.66;4996857;28;20037;-80
2023/06/07 03:51:43;;;;;;;17.17;15.52;;;;;;;-145.41;100.00;58600.66;5014029;28;20372;-80
2023/06/07 03:54:09;;;;;;;16.90;15.27;;;;;;;-145.41;100.00;58600.66;5013562;28;20037;-80
2023/06/07 03:56:36;;;;;;;18.55;16.63;;;;;;;-145.41;100.00;58600.66;4996158;28;20027;-80
2023/06/07 03:59:02;;;;;;;16.95;15.15;;;;;;;-145.41;100.00;58600.66;5010888;28;20034;-79
2023/06/07 04:01:29;;;;;;;16.73;15.10;;;;;;;-145.41;100.00;58600.66;5018286;28;20408;-79
2023/06/07 04:03:56;;;;;;;17.52;15.73;;;;;;;-145.41;100.00;58600.66;5019149;28;20121;-79
2023/06/07 04:06:24;;;;;;;18.55;16.38;;;;;;;-145.41;100.00;58600.66;5018471;28;20057;-80
2023/06/07 04:08:56;;;;;;;19.77;16.27;;;;;;;-145.41;100.00;58600.66;5018641;28;20025;-79
2023/06/07 04:11:26;;;;;;;19.42;15.32;;;;;;;-145.41;100.00;58600.66;5019691;28;20057;-80
2023/06/07 04:13:52;;;;;;;18.75;16.85;;;;;;;-145.41;100.00;58600.66;5029822;28;20025;-79
2023/06/07 04:16:20;;;;;;;17.85;16.08;;;;;;;-145.41;100.00;58600.66;5018944;28;20464;-80
2023/06/07 04:18:47;;;;;;;20.00;18.00;;;;;;;-145.41;100.00;58600.66;5035142;28;20370;-80
2023/06/07 04:21:13;;;;;;;18.88;16.88;;;;;;;-145.41;100.00;58600.66;5018681;28;20045;-80
2023/06/07 04:23:41;;;;;;;14.80;13.23;;;;;;;-145.41;100.00;58600.66;5018114;28;20102;-80
2023/06/07 04:26:08;;;;;;;15.95;13.38;;;;;;;-145.41;100.00;58600.66;5000485;28;20034;-79
2023/06/07 04:28:34;;;;;;;14.07;12.68;;;;;;;-145.41;100.00;58600.66;4999113;28;20057;-80
2023/06/07 04:31:02;;;;;;;14.60;13.07;;;;;;;-145.41;100.00;58600.66;5016636;28;20034;-79
2023/06/07 04:33:32;;;;;;;11.85;10.65;;;;;;;-145.41;100.00;58600.66;5016748;28;20683;-80
2023/06/07 04:35:57;;;;;;;11.18;10.07;;;;;;;-145.41;100.00;58600.66;5000818;28;20049;-79
2023/06/07 04:38:23;;;;;;;13.70;11.60;;;;;;;-145.41;100.00;58600.66;5016052;28;20062;-80
2023/06/07 04:40:54;;;;;;;13.52;10.48;;;;;;;-145.41;100.00;58600.66;5000850;28;20038;-80
2023/06/07 04:43:36;;;;;;;10.93;9.02;;;;;;;-145.41;100.00;58600.66;5014842;28;20061;-80
2023/06/07 04:46:02;;;;;;;10.57;9.18;;;;;;;-145.41;100.00;58600.66;4997392;28;20042;-80
2023/06/07 04:48:31;;;;;;;10.68;8.98;;;;;;;-145.41;100.00;58600.66;5029808;28;20032;-80
2023/06/07 04:51:04;;;;;;;9.63;8.63;;;;;;;-145.41;100.00;58600.66;5015647;28;20038;-80
2023/06/07 04:53:36;;;;;;;11.10;8.93;;;;;;;-145.41;100.00;58600.66;5015763;28;20026;-79
2023/06/07 04:56:04;;;;;;;12.77;9.30;;;;;;;-145.41;100.00;58600.66;5017207;28;20121;-80
2023/06/07 04:58:33;;;;;;;10.55;8.55;;;;;;;-145.41;100.00;58600.66;5015506;28;20022;-80
2023/06/07 05:01:02;;;;;;;10.98;8.23;;;;;;;-145.41;100.00;58600.66;5016323;28;20149;-80
2023/06/07 05:03:31;;;;;;;10.13;8.05;;;;;;;-145.41;100.00;58600.66;5018177;28;20034;-80
2023/06/07 05:06:00;;;;;;;8.75;7.68;;;;;;;-145.41;100.00;58600.66;5018765;28;20040;-80
2023/06/07 05:08:28;;;;;;;9.73;7.37;;;;;;;-145.41;100.00;58600.66;5002406;28;20022;-80
2023/06/07 05:10:54;;;;;;;9.77;7.68;;;;;;;-145.41;100.00;58600.66;5017922;28;20087;-80
2023/06/07 05:13:20;;;;;;;17.08;7.22;;;;;;;-145.41;100.00;58600.66;5003379;28;20079;-80
2023/06/07 05:15:46;;;;;;;6.80;5.60;;;;;;;-145.41;100.00;58600.66;5019946;28;20053;-80
2023/06/07 05:18:19;;;;;;;8.77;6.20;;;;;;;-145.41;100.00;58600.66;5019070;28;20032;-80
2023/06/07 05:20:45;;;;;;;7.80;5.68;;;;;;;-145.41;100.00;58600.66;5001581;28;20034;-80
2023/06/07 05:23:15;;;;;;;8.07;5.78;;;;;;;-145.41;100.00;58600.66;5018408;28;20034;-80
2023/06/07 05:25:41;;;;;;;6.53;5.20;;;;;;;-145.41;100.00;58600.66;5018007;28;20074;-80
2023/06/07 05:28:06;;;;;;;6.40;5.00;;;;;;;-145.41;100.00;58600.66;5002187;28;20029;-80
2023/06/07 05:30:32;;;;;;;7.35;5.35;;;;;;;-145.41;100.00;58600.66;5017609;28;20038;-80
2023/06/07 05:32:57;;;;;;;7.32;5.82;;;;;;;-145.41;100.00;58600.66;5017277;28;20095;-80
2023/06/07 05:35:23;;;;;;;7.68;5.45;;;;;;;-145.41;100.00;58600.66;5007693;28;20026;-80
2023/06/07 05:37:49;;;;;;;7.35;5.45;;;;;;;-145.41;100.00;58600.66;5016753;28;20034;-80
2023/06/07 05:40:18;;;;;;;7.93;5.32;;;;;;;-145.41;100.00;58600.66;5015077;28;20125;-80
2023/06/07 05:42:44;;;;;;;6.25;5.03;;;;;;;-145.41;100.00;58600.66;5016716;28;20037;-80
2023/06/07 05:45:10;;;;;;;7.40;5.30;;;;;;;-145.41;100.00;58600.66;5016521;28;20072;-80
2023/06/07 05:47:35;;;;;;;8.52;4.82;;;;;;;-145.41;100.00;58600.66;5018387;28;20026;-80
2023/06/07 05:50:03;;;;;;;7.72;4.78;;;;;;;-145.41;100.00;58600.66;5017875;28;20084;-80
2023/06/07 05:52:28;;;;;;;6.65;5.57;;;;;;;-145.41;100.00;58600.66;5019119;28;20037;-80
2023/06/07 05:54:55;;;;;;;6.97;4.43;;;;;;;-145.41;100.00;58600.66;5018376;28;20121;-80
2023/06/07 05:57:21;;;;;;;9.65;4.90;;;;;;;-145.41;100.00;58600.66;5019046;28;20025;-79
2023/06/07 05:59:46;;;;;;;7.25;5.25;;;;;;;-145.41;100.00;58600.66;5017324;28;20175;-80
2023/06/07 06:02:12;;;;;;;6.97;4.93;;;;;;;-145.41;100.00;58600.66;5017916;28;20065;-80
2023/06/07 06:04:37;;;;;;;6.95;4.95;;;;;;;-145.41;100.00;58600.66;5014118;28;20536;-79
2023/06/07 06:07:02;;;;;;;6.57;4.50;;;;;;;-145.41;100.00;58600.66;5015760;28;20045;-80
2023/06/07 06:09:28;;;;;;;5.90;4.70;;;;;;;-145.41;100.00;58600.66;5016678;28;20108;-80
2023/06/07 06:11:55;;;;;;;6.00;4.63;;;;;;;-145.41;100.00;58600.66;5016017;28;20072;-80
2023/06/07 06:14:25;;;;;;;7.25;4.63;;;;;;;-145.41;100.00;58600.66;5016450;28;20046;-80
2023/06/07 06:16:50;;;;;;;8.38;4.68;;;;;;;-145.41;100.00;58600.66;5016686;28;20034;-80
2023/06/07 06:19:16;;;;;;;5.68;3.80;;;;;;;-145.41;100.00;58600.66;5016145;28;20033;-80
2023/06/07 06:21:41;;;;;;;5.43;4.13;;;;;;;-145.41;100.00;58600.66;5016514;28;20033;-80
2023/06/07 06:24:07;;;;;;;5.78;4.13;;;;;;;-145.41;100.00;58600.66;5016084;28;20038;-80
2023/06/07 06:26:32;;;;;;;7.13;4.57;;;;;;;-145.41;100.00;58600.66;5016709;28;20037;-80
2023/06/07 06:28:58;;;;;;;6.55;4.82;;;;;;;-145.41;100.00;58600.66;4998808;28;20049;-80
2023/06/07 06:31:24;;;;;;;6.53;4.30;;;;;;;-145.41;100.00;58600.66;5015507;28;20034;-80
2023/06/07 06:33:49;;;;;;;6.22;4.18;;;;;;;-145.41;100.00;58600.66;5031638;28;20033;-80
2023/06/07 06:36:15;;;;;;;7.47;4.53;;;;;;;-145.41;100.00;58600.66;5014079;28;20454;-80
2023/06/07 06:38:41;;;;;;;7.60;4.47;;;;;;;-145.41;100.00;58600.66;5024854;23;20050;-77
2023/06/07 06:41:08;;;;;;;6.20;4.05;;;;;;;-145.41;100.00;58600.66;4997953;28;20038;-75
2023/06/07 06:43:35;;;;;;;7.18;4.10;;;;;;;-145.41;100.00;58600.66;5001510;28;20065;-75
2023/06/07 06:46:00;;;;;;;6.60;4.45;;;;;;;-145.41;100.00;58600.66;5005281;28;20471;-75
2023/06/07 06:48:25;;;;;;;7.03;4.55;;;;;;;-145.41;100.00;58600.66;4995500;28;20103;-75
2023/06/07 06:50:51;;;;;;;8.25;4.40;;;;;;;-145.41;100.00;58600.66;5000125;28;20072;-75
2023/06/07 06:53:16;;;;;;;5.80;4.72;;;;;;;-145.41;100.00;58600.66;5007749;28;20073;-75
2023/06/07 06:55:41;;;;;;;5.75;5.05;;;;;;;-145.41;100.00;58600.66;4995570;28;20107;-76
2023/06/07 06:58:07;;;;;;;6.20;4.40;;;;;;;-145.41;100.00;58600.66;5002923;28;20061;-76
2023/06/07 07:00:35;;;;;;;8.45;5.68;;;;;;;-145.41;100.00;58600.66;5001435;28;20117;-75
2023/06/07 07:03:01;;;;;;;9.25;4.85;;;;;;;-145.41;100.00;58600.66;5004032;28;20049;-76
2023/06/07 07:05:26;;;;;;;8.40;6.88;;;;;;;-145.41;100.00;58600.66;5000673;28;20026;-76
2023/06/07 07:07:51;;;;;;;8.25;5.22;;;;;;;-145.41;100.00;58600.66;4998460;28;20045;-76
2023/06/07 07:10:18;;;;;;;6.45;4.20;;;;;;;-145.41;100.00;58600.66;5001556;28;20038;-75
2023/06/07 07:12:43;;;;;;;6.28;4.88;;;;;;;-145.41;100.00;58600.66;5000049;28;20117;-76
2023/06/07 07:15:10;;;;;;;7.57;5.10;;;;;;;-145.41;100.00;58600.66;4997272;28;20088;-76
2023/06/07 07:17:46;;;;;;;6.93;4.03;;;;;;;-145.41;100.00;58600.66;5003211;28;20477;-75
2023/06/07 07:20:12;;;;;;;5.18;3.45;;;;;;;-145.41;100.00;58600.66;4994808;28;20493;-76
2023/06/07 07:22:38;;;;;;;6.63;3.78;;;;;;;-145.41;100.00;58600.66;4999265;28;20068;-75
2023/06/07 07:25:03;;;;;;;5.05;3.70;;;;;;;-145.41;100.00;58600.66;5006422;28;20062;-76
2023/06/07 07:27:29;;;;;;;8.18;7.13;;;;;;;-145.41;100.00;58600.66;5004709;28;20406;-76
2023/06/07 07:29:54;;;;;;;6.85;4.00;;;;;;;-145.41;100.00;58600.66;4995235;28;20105;-76
2023/06/07 07:32:19;;;;;;;7.30;4.13;;;;;;;-145.41;100.00;58600.66;5004448;28;20397;-75
2023/06/07 07:34:45;;;;;;;5.75;3.10;;;;;;;-145.41;100.00;58600.66;5008193;28;20397;-75
2023/06/07 07:37:10;;;;;;;5.65;3.70;;;;;;;-145.41;100.00;58600.66;5006079;28;20643;-76
2023/06/07 07:39:36;;;;;;;6.78;5.57;;;;;;;-145.41;100.00;58600.66;5006339;28;20407;-76
2023/06/07 07:42:03;;;;;;;5.70;3.83;;;;;;;-145.41;100.00;58600.66;5002061;28;20097;-75
2023/06/07 07:44:28;;;;;;;6.35;4.72;;;;;;;-145.41;100.00;58600.66;5000380;28;20038;-76
2023/06/07 07:46:53;;;;;;;6.90;5.22;;;;;;;-145.41;100.00;58600.66;5003858;28;20093;-76
2023/06/07 07:49:19;;;;;;;5.35;3.58;;;;;;;-145.41;100.00;58600.66;5003606;28;20404;-76
2023/06/07 07:51:44;;;;;;;5.10;4.00;;;;;;;-145.41;100.00;58600.66;5003020;28;20397;-76
2023/06/07 07:54:09;;;;;;;6.30;4.70;;;;;;;-145.41;100.00;58600.66;5010290;28;20037;-76
2023/06/07 07:56:35;;;;;;;8.10;4.50;;;;;;;-145.41;100.00;58600.66;5003852;28;20038;-76
2023/06/07 07:59:00;;;;;;;5.95;3.30;;;;;;;-145.41;100.00;58600.66;5003822;28;20100;-76
2023/06/07 08:01:25;;;;;;;5.53;4.13;;;;;;;-145.41;100.00;58600.66;5010965;28;20038;-76
2023/06/07 08:03:51;;;;;;;9.32;4.85;;;;;;;-145.41;100.00;58600.66;5000484;28;20049;-76
2023/06/07 08:06:16;;;;;;;7.60;3.45;;;;;;;-145.41;100.00;58600.66;5002618;28;20042;-76
2023/06/07 08:08:41;;;;;;;4.65;3.50;;;;;;;-145.41;100.00;58600.66;5010903;28;20033;-75
2023/06/07 08:11:07;;;;;;;5.90;5.03;;;;;;;-145.41;100.00;58600.66;5000252;28;20038;-75
2023/06/07 08:13:32;;;;;;;6.35;4.45;;;;;;;-145.41;100.00;58600.66;5003413;28;20109;-75
2023/06/07 08:15:57;;;;;;;5.10;3.58;;;;;;;-145.41;100.00;58600.66;5009833;28;20072;-76
2023/06/07 08:18:23;;;;;;;5.63;3.63;;;;;;;-145.41;100.00;58600.66;4999183;28;20137;-76
2023/06/07 08:20:48;;;;;;;8.55;4.28;;;;;;;-145.41;100.00;58600.66;5004917;28;20041;-75
2023/06/07 08:23:14;;;;;;;8.18;3.83;;;;;;;-145.41;100.00;58600.66;5005136;28;20041;-76
2023/06/07 08:25:39;;;;;;;6.15;3.65;;;;;;;-145.41;100.00;58600.66;4999762;28;20030;-76
2023/06/07 08:28:04;;;;;;;5.00;3.38;;;;;;;-145.41;100.00;58600.66;5021444;28;20037;-75
2023/06/07 08:30:30;;;;;;;6.47;4.03;;;;;;;-145.41;100.00;58600.66;5006290;28;20128;-75
2023/06/07 08:32:56;;;;;;;6.50;4.53;;;;;;;-145.41;100.00;58600.66;5000557;28;20073;-75
2023/06/07 08:35:21;;;;;;;5.80;3.70;;;;;;;-145.41;100.00;58600.66;5006408;28;20080;-76
2023/06/07 08:37:46;;;;;;;4.90;3.35;;;;;;;-145.41;100.00;58600.66;5004134;28;20029;-76
2023/06/07 08:40:17;;;;;;;5.60;4.30;;;;;;;-145.41;100.00;58600.66;5011012;28;20512;-76
2023/06/07 08:42:42;;;;;;;6.47;3.42;;;;;;;-145.41;100.00;58600.66;4998351;28;20030;-76
2023/06/07 08:45:08;;;;;;;6.15;3.42;;;;;;;-145.41;100.00;58600.66;5007068;28;20250;-76
2023/06/07 08:47:35;;;;;;;5.60;3.53;;;;;;;-145.41;100.00;58600.66;5001373;28;20507;-75
2023/06/07 08:50:02;;;;;;;6.68;3.13;;;;;;;-145.41;100.00;58600.66;4999639;28;20034;-75
2023/06/07 08:52:30;;;;;;;5.88;3.08;;;;;;;-145.41;100.00;58600.66;5003539;28;20052;-76
2023/06/07 08:54:59;;;;;;;7.70;3.33;;;;;;;-145.41;100.00;58600.66;5010723;28;20038;-76
2023/06/07 08:57:25;;;;;;;7.68;5.63;;;;;;;-145.41;100.00;58600.66;5000146;28;20081;-76
2023/06/07 08:59:51;;;;;;;8.35;5.38;;;;;;;-145.41;100.00;58600.66;5001919;28;20409;-76
2023/06/07 09:02:17;;;;;;;6.97;4.82;;;;;;;-145.41;100.00;58600.66;5001915;28;20034;-76
2023/06/07 09:04:43;;;;;;;5.38;3.33;;;;;;;-145.41;100.00;58600.66;5000168;28;20791;-76
2023/06/07 09:07:09;;;;;;;6.43;3.60;;;;;;;-145.41;100.00;58600.66;5004067;28;20050;-76
2023/06/07 09:09:35;;;;;;;6.18;3.13;;;;;;;-145.41;100.00;58600.66;5005139;28;20041;-76
2023/06/07 09:12:01;;;;;;;6.47;3.10;;;;;;;-145.41;100.00;58600.66;5000164;28;20050;-76
2023/06/07 09:14:28;;;;;;;4.53;2.50;;;;;;;-145.41;100.00;58600.66;5007611;28;20037;-76
2023/06/07 09:16:54;;;;;;;8.15;3.63;;;;;;;-145.41;100.00;58600.66;5002053;28;20054;-76
2023/06/07 09:19:36;;;;;;;6.80;3.00;;;;;;;-145.41;100.00;58600.66;5001336;28;20489;-76
2023/06/07 09:22:09;;;;;;;;;;;;;;;-145.41;100.00;58600.66;5000777;28;20117;-76
2023/06/07 09:24:36;;;;;;;4.93;2.78;;;;;;;-145.41;100.00;58600.66;5001628;28;20554;-76
2023/06/07 09:27:03;;;;;;;5.60;4.25;;;;;;;-145.41;100.00;58600.66;5007913;28;20038;-76
2023/06/07 09:29:37;;;;;;;5.82;3.55;;;;;;;-145.41;100.00;58600.66;5000828;28;20049;-76
2023/06/07 09:32:19;;;;;;;4.47;2.90;;;;;;;-145.41;100.00;58600.66;4999894;28;20042;-76
2023/06/07 09:34:45;;;;;;;7.93;3.38;;;;;;;-145.41;100.00;58600.66;5001578;28;20041;-76
2023/06/07 09:37:11;;;;;;;5.45;3.10;;;;;;;-145.41;100.00;58600.66;5005563;28;20030;-76
2023/06/07 09:39:38;;;;;;;6.60;2.75;;;;;;;-145.41;100.00;58600.66;4999169;28;20034;-75
2023/06/07 09:42:14;;;;;;;6.50;3.03;;;;;;;-145.41;100.00;58600.66;5014536;28;20050;-76
2023/06/07 09:44:39;;;;;;;7.13;2.38;;;;;;;-145.41;100.00;58600.66;5005903;28;20053;-76
2023/06/07 09:47:05;;;;;;;5.95;3.25;;;;;;;-145.41;100.00;58600.66;4998344;28;20069;-76
2023/06/07 09:49:35;;;;;;;5.25;3.38;;;;;;;-145.41;100.00;58600.66;5000416;28;20117;-76
2023/06/07 09:52:11;;;;;;;4.30;2.63;;;;;;;-145.41;100.00;58600.66;5007436;28;20073;-76
2023/06/07 09:54:38;;;;;;;4.95;2.40;;;;;;;-145.41;100.00;58600.66;4994457;28;20501;-76
2023/06/07 09:57:11;;;;;;;10.25;4.80;;;;;;;-145.41;100.00;58600.66;5002772;28;20392;-76
2023/06/07 09:59:37;;;;;;;5.35;4.18;;;;;;;-145.41;100.00;58600.66;5003796;28;20018;-77
2023/06/07 10:02:23;;;;;;;4.22;2.28;;;;;;;-145.41;100.00;58600.66;4998292;28;20053;-77
2023/06/07 10:04:48;;;;;;;5.20;2.78;;;;;;;-145.41;100.00;58600.66;5002695;28;20103;-77
2023/06/07 10:07:15;;;;;;;5.00;2.78;;;;;;;-145.41;100.00;58600.66;5008499;28;20025;-77
2023/06/07 10:09:41;;;;;;;10.77;3.30;;;;;;;-145.41;100.00;58600.66;4998006;28;20069;-77
2023/06/07 10:12:09;;;;;;;6.57;2.83;;;;;;;-145.41;100.00;58600.66;5001592;28;20056;-77
2023/06/07 10:14:36;;;;;;;6.72;3.17;;;;;;;-145.41;100.00;58600.66;5004031;28;20041;-77
2023/06/07 10:17:10;;;;;;;6.15;5.10;;;;;;;-145.41;100.00;58600.66;4994907;28;20444;-77
2023/06/07 10:19:46;;;;;;;6.80;4.80;;;;;;;-145.41;100.00;58600.66;5020068;28;20046;-77
2023/06/07 10:22:16;;;;;;;5.18;3.45;;;;;;;-145.41;100.00;58600.66;5000901;28;20045;-77
2023/06/07 10:24:55;;;;;;;6.23;4.77;;;;;;;-145.41;100.00;58600.66;5003546;28;20060;-77
2023/06/07 10:27:23;;;;;;;6.05;4.28;;;;;;;-145.41;100.00;58600.66;4999681;28;20289;-77
2023/06/07 10:30:06;;;;;;;7.45;4.47;;;;;;;-145.41;100.00;58600.66;5016471;28;20036;-77
2023/06/07 10:32:35;;;;;;;7.57;5.43;;;;;;;-145.41;100.00;58600.66;5005309;28;20033;-77
2023/06/07 10:35:02;;;;;;;6.03;5.35;;;;;;;-145.41;100.00;58600.66;4996838;28;20041;-77
2023/06/07 10:37:30;;;;;;;7.28;2.95;;;;;;;-145.41;100.00;58600.66;5003632;28;20121;-77
2023/06/07 10:39:57;;;;;;;5.38;4.20;;;;;;;-145.41;100.00;58600.66;5002967;28;20076;-77
2023/06/07 10:42:23;;;;;;;6.13;3.67;;;;;;;-145.41;100.00;58600.66;4994910;28;20045;-77
2023/06/07 10:44:49;;;;;;;5.95;3.38;;;;;;;-145.41;100.00;58600.66;5002523;28;20030;-77
2023/06/07 10:47:21;;;;;;;5.00;3.50;;;;;;;-145.41;100.00;58600.66;4997029;28;20034;-77
2023/06/07 10:49:46;;;;;;;;;;;;;;;-145.41;100.00;58600.66;4999240;28;20137;-77
2023/06/07 10:52:14;;;;;;;7.75;6.95;;;;;;;-145.41;100.00;58600.66;5006074;28;20005;-77
2023/06/07 10:54:41;;;;;;;6.97;4.80;;;;;;;-145.41;100.00;58600.66;5005445;28;20036;-77
2023/06/07 10:57:06;;;;;;;8.95;6.03;;;;;;;-145.41;100.00;58600.66;4996620;28;20030;-77
2023/06/07 10:59:32;;;;;;;7.15;4.53;;;;;;;-145.41;100.00;58600.66;5000690;28;20590;-77
2023/06/07 11:02:29;;;;;;;8.27;6.80;;;;;;;-145.41;100.00;58600.66;4998767;28;20042;-77